createdAt,value
2023-04-23T00:00:27.998Z,99.90
2023-04-23T00:03:23.365Z,99.90
2023-04-23T00:06:11.843Z,99.90
2023-04-23T00:09:03.866Z,99.90
2023-04-23T00:11:52.688Z,99.90
2023-04-23T00:15:17.076Z,99.90
2023-04-23T00:18:07.631Z,99.90
2023-04-23T00:20:57.692Z,99.90
2023-04-23T00:23:45.600Z,99.90
2023-04-23T00:26:39.050Z,99.90
2023-04-23T00:29:26.732Z,99.90
2023-04-23T00:32:15.270Z,99.90
2023-04-23T00:35:07.180Z,99.90
2023-04-23T00:37:57.759Z,99.90
2023-04-23T00:40:45.413Z,99.90
2023-04-23T00:43:34.019Z,99.90
2023-04-23T00:46:26.411Z,99.90
2023-04-23T00:49:14.651Z,99.90
2023-04-23T00:52:04.377Z,99.90
2023-04-23T00:54:55.415Z,99.90
2023-04-23T00:57:44.937Z,99.90
2023-04-23T01:00:34.612Z,99.90
2023-04-23T01:03:26.578Z,99.90
2023-04-23T01:06:14.955Z,99.90
2023-04-23T01:09:06.255Z,99.90
2023-04-23T01:11:58.172Z,99.90
2023-04-23T01:14:46.256Z,99.90
2023-04-23T01:17:42.149Z,99.90
2023-04-23T01:20:30.777Z,99.90
2023-04-23T01:23:26.480Z,99.90
2023-04-23T01:26:19.222Z,99.90
2023-04-23T01:29:09.746Z,99.90
2023-04-23T01:32:08.625Z,99.90
2023-04-23T01:34:57.724Z,99.90
2023-04-23T01:37:50.052Z,99.90
2023-04-23T01:40:43.356Z,99.90
2023-04-23T01:43:32.276Z,99.90
2023-04-23T01:46:21.264Z,99.90
2023-04-23T01:49:12.446Z,99.90
2023-04-23T01:52:00.518Z,99.90
2023-04-23T01:54:50.604Z,99.90
2023-04-23T01:57:38.428Z,99.90
2023-04-23T02:00:26.088Z,99.90
2023-04-23T02:03:14.168Z,99.90
2023-04-23T02:06:06.029Z,99.90
2023-04-23T02:08:59.386Z,99.90
2023-04-23T02:11:47.234Z,99.90
2023-04-23T02:14:41.779Z,99.90
2023-04-23T02:17:35.559Z,99.90
2023-04-23T02:20:23.512Z,99.90
2023-04-23T02:23:18.630Z,99.90
2023-04-23T02:26:09.879Z,99.90
2023-04-23T02:28:57.781Z,99.90
2023-04-23T02:31:51.930Z,99.90
2023-04-23T02:34:48.836Z,99.90
2023-04-23T02:37:37.375Z,99.90
2023-04-23T02:40:32.858Z,99.90
2023-04-23T02:43:27.069Z,99.90
2023-04-23T02:46:14.923Z,99.90
2023-04-23T02:49:48.544Z,99.90
2023-04-23T02:55:50.912Z,99.90
2023-04-23T02:59:04.780Z,99.90
2023-04-23T03:01:52.518Z,99.90
2023-04-23T03:04:40.361Z,99.90
2023-04-23T03:07:28.263Z,99.90
2023-04-23T03:10:15.921Z,99.90
2023-04-23T03:13:07.096Z,99.90
2023-04-23T03:15:56.142Z,99.90
2023-04-23T03:18:43.685Z,99.90
2023-04-23T03:21:31.555Z,99.90
2023-04-23T03:24:19.424Z,99.90
2023-04-23T03:27:07.146Z,99.90
2023-04-23T03:29:54.810Z,99.90
2023-04-23T03:32:42.440Z,99.90
2023-04-23T03:35:30.672Z,99.90
2023-04-23T03:38:21.544Z,99.90
2023-04-23T03:41:09.727Z,99.90
2023-04-23T03:44:00.150Z,99.90
2023-04-23T03:46:50.771Z,99.90
2023-04-23T03:49:47.142Z,99.90
2023-04-23T03:52:45.478Z,99.90
2023-04-23T03:55:40.403Z,99.90
2023-04-23T03:59:30.412Z,99.90
2023-04-23T04:02:50.670Z,99.90
2023-04-23T04:06:03.642Z,99.90
2023-04-23T04:09:20.434Z,99.90
2023-04-23T04:12:41.314Z,99.90
2023-04-23T04:15:58.656Z,99.90
2023-04-23T04:22:14.526Z,99.90
2023-04-23T04:25:32.969Z,99.90
2023-04-23T04:28:45.108Z,99.90
2023-04-23T04:40:04.245Z,99.90
2023-04-23T04:51:43.385Z,99.90
2023-04-23T04:54:31.296Z,99.90
2023-04-23T04:57:56.439Z,99.90
2023-04-23T05:00:47.894Z,99.90
2023-04-23T05:03:37.277Z,99.90
2023-04-23T05:06:57.200Z,99.90
2023-04-23T05:09:56.618Z,99.90
2023-04-23T05:13:22.422Z,99.90
2023-04-23T05:19:32.237Z,99.90
2023-04-23T05:23:41.238Z,99.90
2023-04-23T05:26:43.995Z,99.90
2023-04-23T05:29:46.530Z,99.90
2023-04-23T05:32:41.457Z,99.90
2023-04-23T05:43:21.645Z,99.90
2023-04-23T05:46:59.999Z,99.90
2023-04-23T06:03:00.462Z,99.90
2023-04-23T06:06:11.161Z,99.90
2023-04-23T06:13:44.090Z,99.90
2023-04-23T06:37:30.453Z,99.90
2023-04-23T06:52:02.831Z,99.90
2023-04-23T07:03:01.486Z,99.90
2023-04-23T07:44:51.824Z,99.90
2023-04-23T08:11:42.245Z,99.90
2023-04-23T08:14:40.995Z,99.90
2023-04-23T08:17:38.200Z,99.90
2023-04-23T08:20:27.250Z,99.90
2023-04-23T08:23:58.056Z,99.90
2023-04-23T08:27:13.895Z,99.90
2023-04-23T08:52:06.511Z,99.90
2023-04-23T08:55:53.342Z,99.90
2023-04-23T08:59:11.502Z,99.90
2023-04-23T09:02:38.504Z,99.90
2023-04-23T09:06:00.266Z,99.90
2023-04-23T09:12:45.426Z,99.90
2023-04-23T09:15:52.800Z,99.90
2023-04-23T09:27:42.008Z,99.90
2023-04-23T09:38:52.516Z,99.90
2023-04-23T09:41:45.972Z,99.90
2023-04-23T09:44:44.617Z,99.90
2023-04-23T09:47:42.199Z,99.90
2023-04-23T09:50:52.446Z,99.90
2023-04-23T09:53:51.875Z,99.90
2023-04-23T09:56:44.425Z,99.90
2023-04-23T10:04:04.812Z,99.90
2023-04-23T10:07:24.149Z,99.90
2023-04-23T10:10:57.421Z,99.90
2023-04-23T10:14:50.792Z,99.90
2023-04-23T10:18:08.598Z,99.90
2023-04-23T10:34:55.437Z,99.90
2023-04-23T10:38:04.368Z,99.90
2023-04-23T10:40:55.834Z,99.90
2023-04-23T10:43:43.681Z,99.90
2023-04-23T10:46:39.300Z,99.90
2023-04-23T10:49:37.349Z,99.90
2023-04-23T10:52:26.089Z,99.90
2023-04-23T10:55:19.188Z,99.90
2023-04-23T10:58:08.879Z,99.90
2023-04-23T11:00:56.965Z,99.90
2023-04-23T11:03:51.804Z,99.90
2023-04-23T11:06:48.565Z,99.90
2023-04-23T11:10:26.657Z,99.90
2023-04-23T11:13:35.721Z,99.90
2023-04-23T11:16:45.623Z,99.90
2023-04-23T11:19:41.323Z,99.90
2023-04-23T11:23:00.115Z,99.90
2023-04-23T11:25:54.450Z,99.90
2023-04-23T11:28:57.270Z,99.90
2023-04-23T11:32:01.433Z,99.90
2023-04-23T11:34:51.597Z,99.90
2023-04-23T11:37:43.759Z,99.90
2023-04-23T11:40:35.178Z,99.90
2023-04-23T11:43:32.443Z,99.90
2023-04-23T11:46:21.269Z,99.90
2023-04-23T11:49:09.872Z,99.90
2023-04-23T11:52:05.834Z,99.90
2023-04-23T11:54:57.430Z,99.90
2023-04-23T12:01:37.999Z,99.90
2023-04-23T12:04:41.081Z,99.90
2023-04-23T12:07:52.934Z,99.90
2023-04-23T12:10:55.290Z,99.90
2023-04-23T12:14:04.753Z,99.90
2023-04-23T12:17:26.151Z,99.90
2023-04-23T12:23:44.111Z,99.90
2023-04-23T12:26:54.648Z,99.90
2023-04-23T12:30:07.385Z,99.90
2023-04-23T12:33:52.793Z,99.90
2023-04-23T12:37:41.724Z,99.90
2023-04-23T12:48:09.141Z,99.90
2023-04-23T12:55:25.171Z,99.90
2023-04-23T12:59:07.560Z,98.70
2023-04-23T13:02:40.496Z,96.40
2023-04-23T13:06:11.901Z,92.50
2023-04-23T13:13:09.460Z,82.10
2023-04-23T13:32:15.569Z,85.60
2023-04-23T13:35:14.649Z,90.60
2023-04-23T13:38:07.702Z,91.60
2023-04-23T13:41:09.656Z,92.60
2023-04-23T13:44:11.534Z,86.60
2023-04-23T13:47:15.273Z,85.40
2023-04-23T13:50:10.275Z,91.00
2023-04-23T13:53:30.634Z,91.40
2023-04-23T13:56:21.975Z,86.90
2023-04-23T14:02:57.954Z,85.70
2023-04-23T14:05:50.692Z,78.00
2023-04-23T14:08:57.797Z,77.30
2023-04-23T14:12:16.241Z,75.90
2023-04-23T14:15:28.588Z,74.20
2023-04-23T14:18:20.584Z,67.60
2023-04-23T14:21:11.287Z,66.10
2023-04-23T14:24:12.015Z,63.10
2023-04-23T14:26:59.716Z,59.00
2023-04-23T14:30:06.344Z,60.20
2023-04-23T14:32:59.597Z,57.60
2023-04-23T14:35:48.224Z,57.20
2023-04-23T14:38:38.912Z,60.50
2023-04-23T14:41:28.154Z,59.50
2023-04-23T14:44:22.327Z,56.60
2023-04-23T14:47:12.055Z,56.10
2023-04-23T14:50:11.882Z,54.70
2023-04-23T14:53:03.843Z,47.60
2023-04-23T14:55:56.345Z,46.00
2023-04-23T14:58:49.638Z,47.70
2023-04-23T15:01:37.509Z,52.50
2023-04-23T15:04:28.343Z,55.10
2023-04-23T15:07:15.921Z,56.10
2023-04-23T15:10:11.693Z,55.40
2023-04-23T15:13:03.778Z,56.50
2023-04-23T15:16:04.919Z,57.00
2023-04-23T15:18:57.315Z,53.10
2023-04-23T15:21:47.536Z,51.80
2023-04-23T15:24:38.635Z,53.20
2023-04-23T15:27:31.396Z,53.00
2023-04-23T15:30:27.979Z,52.10
2023-04-23T15:33:15.784Z,52.10
2023-04-23T15:36:14.833Z,49.40
2023-04-23T15:39:02.895Z,52.90
2023-04-23T15:41:59.606Z,51.60
2023-04-23T15:44:51.981Z,52.70
2023-04-23T15:47:40.092Z,54.20
2023-04-23T15:50:27.875Z,55.40
2023-04-23T15:53:15.680Z,56.40
2023-04-23T15:56:09.461Z,57.70
2023-04-23T15:58:57.198Z,55.90
2023-04-23T16:01:44.963Z,56.60
2023-04-23T16:04:35.800Z,56.20
2023-04-23T16:07:26.866Z,56.70
2023-04-23T16:10:15.247Z,57.40
2023-04-23T16:13:10.104Z,58.10
2023-04-23T16:16:03.426Z,58.40
2023-04-23T16:18:52.485Z,59.10
2023-04-23T16:21:43.502Z,59.90
2023-04-23T16:24:33.861Z,61.70
2023-04-23T16:27:23.146Z,60.10
2023-04-23T16:30:11.133Z,61.60
2023-04-23T16:33:07.218Z,61.70
2023-04-23T16:36:05.761Z,63.10
2023-04-23T16:38:53.472Z,71.70
2023-04-23T16:41:49.055Z,84.40
2023-04-23T16:44:48.721Z,99.90
2023-04-23T16:54:41.924Z,99.90
2023-04-23T16:57:45.427Z,99.90
2023-04-23T17:01:07.689Z,99.90
2023-04-23T17:04:15.553Z,99.90
2023-04-23T17:19:09.501Z,99.90
2023-04-23T17:25:55.128Z,99.90
2023-04-23T17:34:17.151Z,99.90
2023-04-23T17:40:39.453Z,99.90
2023-04-23T17:58:48.496Z,99.90
2023-04-23T18:26:27.643Z,99.90
2023-04-23T18:47:50.237Z,99.90
2023-04-23T18:51:36.805Z,99.90
2023-04-23T18:55:39.080Z,99.90
2023-04-23T19:07:02.288Z,99.90
2023-04-23T19:10:27.891Z,99.90
2023-04-23T19:15:23.330Z,99.90
2023-04-23T19:20:25.717Z,99.90
2023-04-23T19:23:19.258Z,99.90
2023-04-23T19:30:03.953Z,99.90
2023-04-23T19:36:16.854Z,99.90
2023-04-23T19:39:20.954Z,99.90
2023-04-23T19:42:26.319Z,99.90
2023-04-23T19:45:35.239Z,99.90
2023-04-23T19:51:40.247Z,99.90
2023-04-23T19:54:52.150Z,99.90
2023-04-23T19:57:53.055Z,99.90
2023-04-23T20:00:52.621Z,99.90
2023-04-23T20:04:42.298Z,99.90
2023-04-23T20:07:45.952Z,99.90
2023-04-23T20:47:50.766Z,99.90
2023-04-23T20:51:08.507Z,99.90
2023-04-23T21:00:38.433Z,99.90
2023-04-23T21:04:00.053Z,99.90
2023-04-23T21:07:33.175Z,99.90
2023-04-23T21:10:26.946Z,99.90
2023-04-23T21:13:26.149Z,99.90
2023-04-23T21:16:14.745Z,99.90
2023-04-23T21:19:14.237Z,99.90
2023-04-23T21:22:08.599Z,99.90
2023-04-23T21:25:08.992Z,99.90
2023-04-23T21:35:10.654Z,99.90
2023-04-23T21:36:51.435Z,99.90
2023-04-23T21:48:20.166Z,99.90
2023-04-23T22:03:27.311Z,99.90
2023-04-23T22:08:12.613Z,99.90
2023-04-23T22:10:41.854Z,99.90
2023-04-23T22:24:33.885Z,99.90
2023-04-23T22:33:21.235Z,99.90
2023-04-23T22:36:55.508Z,99.90
2023-04-23T22:40:02.796Z,99.90
2023-04-23T22:43:53.599Z,99.90
2023-04-23T22:48:38.334Z,99.90
2023-04-23T22:54:38.713Z,99.90
2023-04-23T22:57:46.508Z,99.90
2023-04-23T23:04:33.598Z,99.90
2023-04-23T23:08:17.732Z,99.90
2023-04-23T23:11:18.864Z,99.90
2023-04-23T23:14:13.661Z,99.90
2023-04-23T23:17:13.705Z,99.90
2023-04-23T23:20:03.878Z,99.90
2023-04-23T23:26:11.977Z,99.90
2023-04-23T23:29:16.667Z,99.90
2023-04-23T23:49:08.120Z,99.90
2023-04-23T23:52:05.687Z,99.90
2023-04-23T23:55:00.265Z,99.90
2023-04-23T23:57:54.286Z,99.90
